Time;durP1;ratioP1;P1;durP2;ratioP2;P2;SDS_P1;SDS_P2;PMS_P1;PMS_P2;Temp;Humidity;BMP_temperature;BMP_pressure;BME280_temperature;BME280_humidity;BME280_pressure;Samples;Min_cycle;Max_cycle;Signal;HPM_P1;HPM_P2
2023/02/25 00:01:11;;;;;;;4.38;2.00;;;21.30;33.50;;;;;;5055306;28;20032;-54
2023/02/25 00:03:37;;;;;;;4.35;2.08;;;21.40;33.60;;;;;;5054579;28;20108;-54
2023/02/25 00:06:05;;;;;;;5.53;2.00;;;21.30;33.50;;;;;;5054135;28;20025;-55
2023/02/25 00:08:31;;;;;;;4.40;1.80;;;21.30;33.50;;;;;;5059636;28;20114;-53
2023/02/25 00:11:04;;;;;;;4.10;1.95;;;21.30;33.50;;;;;;5056461;28;20090;-55
2023/02/25 00:13:30;;;;;;;4.20;1.80;;;21.30;33.50;;;;;;5054133;28;20044;-56
2023/02/25 00:15:57;;;;;;;5.18;2.13;;;21.30;33.50;;;;;;5054639;28;20033;-54
2023/02/25 00:18:26;;;;;;;4.00;1.60;;;21.30;33.50;;;;;;5055877;28;20025;-51
2023/02/25 00:20:52;;;;;;;5.22;2.00;;;21.30;33.50;;;;;;5055183;28;20033;-53
2023/02/25 00:23:18;;;;;;;5.05;2.00;;;21.30;33.50;;;;;;5055977;28;20118;-54
2023/02/25 00:25:44;;;;;;;5.70;1.95;;;21.30;33.50;;;;;;5054779;28;20113;-55
2023/02/25 00:28:10;;;;;;;3.53;1.90;;;21.20;33.50;;;;;;5056035;28;20090;-50
2023/02/25 00:30:37;;;;;;;4.13;1.90;;;21.20;33.50;;;;;;5055391;28;20414;-55
2023/02/25 00:33:05;;;;;;;5.30;1.90;;;21.20;33.50;;;;;;5054616;28;20047;-56
2023/02/25 00:35:33;;;;;;;4.40;1.70;;;21.20;33.50;;;;;;5052467;28;20506;-55
2023/02/25 00:37:59;;;;;;;4.43;1.70;;;21.20;33.60;;;;;;5054895;28;20025;-55
2023/02/25 00:40:25;;;;;;;6.03;1.83;;;21.20;33.80;;;;;;5055396;28;20090;-52
2023/02/25 00:42:51;;;;;;;4.05;1.60;;;21.20;33.80;;;;;;5054766;28;20052;-54
2023/02/25 00:45:17;;;;;;;4.78;1.73;;;21.20;33.70;;;;;;5054491;28;20137;-51
2023/02/25 00:47:43;;;;;;;5.55;2.10;;;21.20;33.70;;;;;;5052546;28;20515;-53
2023/02/25 00:50:10;;;;;;;5.60;2.03;;;21.20;33.70;;;;;;5054603;28;20107;-53
2023/02/25 00:52:36;;;;;;;5.35;1.80;;;21.20;33.60;;;;;;5054378;28;20032;-53
2023/02/25 00:55:04;;;;;;;4.93;1.85;;;21.10;33.60;;;;;;5054962;28;20352;-52
2023/02/25 00:57:30;;;;;;;6.32;2.13;;;21.20;33.60;;;;;;5054452;28;20375;-55
2023/02/25 00:59:56;;;;;;;6.05;1.95;;;21.20;33.60;;;;;;5054182;28;20047;-56
2023/02/25 01:02:22;;;;;;;5.15;1.95;;;21.10;33.60;;;;;;5053547;28;20456;-52
2023/02/25 01:04:48;;;;;;;4.28;2.03;;;21.10;33.50;;;;;;5054610;28;20035;-52
2023/02/25 01:07:15;;;;;;;5.32;1.77;;;21.10;33.60;;;;;;5054661;28;20025;-54
2023/02/25 01:09:41;;;;;;;4.57;1.90;;;21.10;33.60;;;;;;5055581;28;20471;-53
2023/02/25 01:12:07;;;;;;;4.32;1.40;;;21.10;33.50;;;;;;5053799;28;20057;-53
2023/02/25 01:14:33;;;;;;;2.85;1.33;;;21.10;33.60;;;;;;5053800;28;20044;-54
2023/02/25 01:17:01;;;;;;;3.72;1.50;;;21.10;33.60;;;;;;5053752;28;20021;-53
2023/02/25 01:19:28;;;;;;;4.05;1.60;;;21.10;33.60;;;;;;5052394;28;20020;-53
2023/02/25 01:21:56;;;;;;;5.95;2.00;;;21.10;33.60;;;;;;5054173;28;20031;-53
2023/02/25 01:24:26;;;;;;;5.47;1.80;;;21.10;33.60;;;;;;5073107;28;20116;-55
2023/02/25 01:26:55;;;;;;;5.20;2.00;;;21.00;33.50;;;;;;5055187;28;20175;-55
2023/02/25 01:29:27;;;;;;;5.28;1.88;;;21.10;33.60;;;;;;5054019;28;20103;-53
2023/02/25 01:31:55;;;;;;;6.25;1.77;;;21.00;33.50;;;;;;5052996;28;20029;-56
2023/02/25 01:34:23;;;;;;;5.05;1.40;;;21.00;33.50;;;;;;5053967;28;20035;-56
2023/02/25 01:36:49;;;;;;;4.30;1.33;;;21.00;33.50;;;;;;5053575;28;20444;-54
2023/02/25 01:39:17;;;;;;;4.22;1.63;;;21.00;33.50;;;;;;5054090;28;20422;-49
2023/02/25 01:41:50;;;;;;;6.10;1.50;;;21.00;33.50;;;;;;5052807;28;20035;-50
2023/02/25 01:44:19;;;;;;;5.43;1.60;;;21.00;33.50;;;;;;5053314;28;20037;-54
2023/02/25 01:46:52;;;;;;;5.45;1.67;;;21.00;33.50;;;;;;5051811;28;20463;-52
2023/02/25 01:49:28;;;;;;;6.32;1.70;;;21.00;33.50;;;;;;5050774;28;20029;-54
2023/02/25 01:52:07;;;;;;;4.07;1.35;;;21.00;33.50;;;;;;5052080;28;20418;-51
2023/02/25 01:54:34;;;;;;;4.03;1.50;;;21.00;33.50;;;;;;5048677;28;20029;-53
2023/02/25 01:57:04;;;;;;;5.43;1.60;;;21.00;33.50;;;;;;5051203;28;20040;-53
2023/02/25 01:59:31;;;;;;;4.75;1.42;;;21.00;33.50;;;;;;5052845;28;20041;-53
2023/02/25 02:01:57;;;;;;;4.28;1.15;;;20.90;33.40;;;;;;5052448;28;20025;-52
2023/02/25 02:04:25;;;;;;;4.60;1.33;;;20.90;33.50;;;;;;5046978;28;20416;-56
2023/02/25 02:06:51;;;;;;;3.85;1.48;;;20.90;33.50;;;;;;5050348;28;20124;-55
2023/02/25 02:09:28;;;;;;;3.67;1.48;;;20.90;33.50;;;;;;5040012;28;20029;-53
2023/02/25 02:12:02;;;;;;;2.97;1.05;;;20.90;33.40;;;;;;5033844;28;20045;-53
2023/02/25 02:14:40;;;;;;;4.35;1.30;;;20.90;33.40;;;;;;5048110;28;20041;-56
2023/02/25 02:17:31;;;;;;;3.38;1.20;;;20.90;33.50;;;;;;5049076;28;20091;-53
2023/02/25 02:20:21;;;;;;;3.40;1.33;;;20.90;33.40;;;;;;5048434;28;20029;-52
2023/02/25 02:23:16;;;;;;;4.22;1.35;;;20.90;33.50;;;;;;5049540;28;20021;-51
2023/02/25 02:25:50;;;;;;;3.35;1.42;;;20.80;33.40;;;;;;5047503;28;20059;-54
2023/02/25 02:28:31;;;;;;;4.18;1.30;;;20.80;33.50;;;;;;5044902;28;20342;-51
2023/02/25 02:31:15;;;;;;;4.30;1.48;;;20.80;33.50;;;;;;5048198;28;20091;-54
2023/02/25 02:33:57;;;;;;;2.90;1.00;;;20.80;33.50;;;;;;5047901;28;20051;-55
2023/02/25 02:36:23;;;;;;;3.67;1.25;;;20.80;33.60;;;;;;5064169;28;20457;-53
2023/02/25 02:39:35;;;;;;;2.85;1.30;;;20.80;33.70;;;;;;5042085;28;20382;-52
2023/02/25 02:42:16;;;;;;;3.35;1.10;;;20.80;33.70;;;;;;5017771;28;20045;-57
2023/02/25 02:44:55;;;;;;;3.35;1.20;;;20.80;33.70;;;;;;5048084;28;20124;-54
2023/02/25 02:47:30;;;;;;;3.60;1.20;;;20.80;34.00;;;;;;5049073;28;20098;-55
2023/02/25 02:50:10;;;;;;;2.90;0.98;;;20.80;33.80;;;;;;5048443;28;20464;-55
2023/02/25 02:52:44;;;;;;;4.13;1.38;;;20.80;33.80;;;;;;5042461;28;20041;-54
2023/02/25 02:55:23;;;;;;;3.63;1.25;;;20.80;33.80;;;;;;5050958;28;20122;-54
2023/02/25 02:57:56;;;;;;;4.47;1.35;;;20.80;33.90;;;;;;5048915;28;20055;-52
2023/02/25 03:00:27;;;;;;;4.18;1.42;;;20.80;33.90;;;;;;5045972;28;20040;-49
2023/02/25 03:03:04;;;;;;;3.05;1.23;;;20.80;33.90;;;;;;5046576;28;20449;-54
2023/02/25 03:05:33;;;;;;;4.72;1.20;;;20.80;33.90;;;;;;5046870;28;20463;-53
2023/02/25 03:08:14;;;;;;;5.03;1.77;;;20.80;33.80;;;;;;5049670;28;20478;-54
2023/02/25 03:10:40;;;;;;;2.78;1.20;;;20.80;33.80;;;;;;5047860;28;20050;-50
2023/02/25 03:13:06;;;;;;;4.65;1.45;;;20.70;33.70;;;;;;5032149;28;20059;-52
2023/02/25 03:15:33;;;;;;;4.75;1.50;;;20.70;33.70;;;;;;5045556;28;20021;-55
2023/02/25 03:18:08;;;;;;;3.38;1.13;;;20.70;33.70;;;;;;5048090;28;20086;-54
2023/02/25 03:20:43;;;;;;;3.58;1.13;;;20.70;33.70;;;;;;5070115;28;20391;-55
2023/02/25 03:23:19;;;;;;;4.45;1.40;;;20.70;33.70;;;;;;5047409;28;20064;-54
2023/02/25 03:25:55;;;;;;;4.78;1.48;;;20.70;33.70;;;;;;5045007;28;20021;-55
2023/02/25 03:28:29;;;;;;;3.70;1.45;;;20.70;33.70;;;;;;5060523;28;20039;-55
2023/02/25 03:31:21;;;;;;;3.63;1.23;;;20.70;33.70;;;;;;5050576;28;20082;-52
2023/02/25 03:34:07;;;;;;;4.47;1.48;;;20.70;33.70;;;;;;5050907;28;20037;-55
2023/02/25 03:36:50;;;;;;;4.80;1.30;;;20.70;33.70;;;;;;5049868;28;20071;-54
2023/02/25 03:39:23;;;;;;;4.40;1.30;;;20.70;33.70;;;;;;5050509;28;20036;-53
2023/02/25 03:41:53;;;;;;;3.95;1.48;;;20.60;33.60;;;;;;5044123;28;20412;-54
2023/02/25 03:44:26;;;;;;;3.58;1.35;;;20.60;33.60;;;;;;5053533;28;20029;-51
2023/02/25 03:46:53;;;;;;;4.20;1.58;;;20.60;33.60;;;;;;5052216;28;20044;-52
2023/02/25 03:49:42;;;;;;;3.45;1.20;;;20.60;33.60;;;;;;5048636;28;20479;-54
2023/02/25 03:52:13;;;;;;;4.22;1.20;;;20.60;33.60;;;;;;5047822;28;20036;-54
2023/02/25 03:54:41;;;;;;;4.53;1.38;;;20.60;33.60;;;;;;5050865;28;20326;-54
2023/02/25 03:57:08;;;;;;;4.55;1.52;;;20.60;33.60;;;;;;5051763;28;20423;-54
2023/02/25 03:59:34;;;;;;;4.25;1.63;;;20.60;33.60;;;;;;5053769;28;21587;-55
2023/02/25 04:02:01;;;;;;;4.47;1.50;;;20.60;33.60;;;;;;5050984;28;20025;-56
2023/02/25 04:04:27;;;;;;;5.03;1.60;;;20.60;34.20;;;;;;5049623;28;20021;-54
2023/02/25 04:06:53;;;;;;;3.50;1.30;;;20.60;33.60;;;;;;5049008;28;20025;-58
2023/02/25 04:09:19;;;;;;;4.68;1.45;;;20.50;33.50;;;;;;5076298;28;20025;-59
2023/02/25 04:11:47;;;;;;;7.40;2.13;;;20.50;33.70;;;;;;5049620;28;20068;-55
2023/02/25 04:14:14;;;;;;;4.13;1.77;;;20.60;34.00;;;;;;5052049;28;20526;-55
2023/02/25 04:16:40;;;;;;;6.13;1.77;;;20.50;34.00;;;;;;5050893;28;20041;-48
2023/02/25 04:19:06;;;;;;;5.10;1.50;;;20.50;33.90;;;;;;5047792;28;20025;-52
2023/02/25 04:21:34;;;;;;;4.80;1.33;;;20.60;33.90;;;;;;5047410;28;20032;-52
2023/02/25 04:24:01;;;;;;;6.55;1.50;;;20.50;33.80;;;;;;5052563;28;20029;-49
2023/02/25 04:26:27;;;;;;;4.53;1.90;;;20.50;33.80;;;;;;5053543;28;20090;-52
2023/02/25 04:28:53;;;;;;;3.65;1.33;;;20.50;33.80;;;;;;5049441;28;20032;-55
2023/02/25 04:31:19;;;;;;;4.88;1.35;;;20.50;33.70;;;;;;5052090;28;20421;-53
2023/02/25 04:33:48;;;;;;;6.30;1.55;;;20.50;33.70;;;;;;5049485;28;20460;-53
2023/02/25 04:36:25;;;;;;;3.65;1.40;;;20.50;33.70;;;;;;5053065;28;20114;-55
2023/02/25 04:38:51;;;;;;;4.55;1.40;;;20.50;33.70;;;;;;5048600;28;20059;-51
2023/02/25 04:41:17;;;;;;;4.88;1.60;;;20.50;33.70;;;;;;5050819;28;20036;-53
2023/02/25 04:43:44;;;;;;;4.85;1.50;;;20.50;33.70;;;;;;5052596;28;20025;-54
2023/02/25 04:46:11;;;;;;;5.28;2.00;;;20.50;33.70;;;;;;5050614;28;20025;-52
2023/02/25 04:48:38;;;;;;;6.32;1.95;;;20.50;33.70;;;;;;5050436;28;20039;-53
2023/02/25 04:51:05;;;;;;;4.85;1.88;;;20.40;33.60;;;;;;5052797;28;20032;-52
2023/02/25 04:53:31;;;;;;;4.18;1.48;;;20.50;33.70;;;;;;5051526;28;20041;-53
2023/02/25 04:56:03;;;;;;;5.07;1.50;;;20.40;33.60;;;;;;5049484;28;20135;-53
2023/02/25 04:58:30;;;;;;;5.03;1.50;;;20.40;33.60;;;;;;5046810;28;20083;-55
2023/02/25 05:00:57;;;;;;;3.05;1.30;;;20.40;33.60;;;;;;5050895;28;20094;-54
2023/02/25 05:03:24;;;;;;;4.95;1.58;;;20.40;33.60;;;;;;5047284;28;20033;-54
2023/02/25 05:05:50;;;;;;;3.90;1.35;;;20.40;33.60;;;;;;5046307;28;20039;-53
2023/02/25 05:08:16;;;;;;;6.78;1.63;;;20.40;33.60;;;;;;5046301;28;20029;-55
2023/02/25 05:10:42;;;;;;;3.28;1.23;;;20.40;33.60;;;;;;5049606;28;20020;-54
2023/02/25 05:13:08;;;;;;;5.13;1.45;;;20.40;33.60;;;;;;5049049;28;20136;-53
2023/02/25 05:15:34;;;;;;;4.85;1.48;;;20.40;33.50;;;;;;5049615;28;20029;-51
2023/02/25 05:17:59;;;;;;;4.93;1.35;;;20.40;33.50;;;;;;5048617;28;20088;-52
2023/02/25 05:20:25;;;;;;;5.13;1.50;;;20.40;33.50;;;;;;5050132;28;20399;-51
2023/02/25 05:22:51;;;;;;;3.72;1.35;;;20.40;33.50;;;;;;5050228;28;20045;-56
2023/02/25 05:25:17;;;;;;;5.43;1.70;;;20.40;34.10;;;;;;5050603;28;20029;-56
2023/02/25 05:27:43;;;;;;;4.47;1.63;;;20.40;33.40;;;;;;5049683;28;20029;-55
2023/02/25 05:30:10;;;;;;;2.78;1.02;;;20.40;33.40;;;;;;5050429;28;20029;-56
2023/02/25 05:32:37;;;;;;;5.82;1.83;;;20.30;33.30;;;;;;5050695;28;20059;-53
2023/02/25 05:35:07;;;;;;;6.00;1.27;;;20.30;33.30;;;;;;5044767;28;20096;-54
2023/02/25 05:37:34;;;;;;;4.50;1.45;;;20.40;33.30;;;;;;5046673;28;20025;-51
2023/02/25 05:40:00;;;;;;;5.90;1.60;;;20.30;33.30;;;;;;5046360;28;20041;-56
2023/02/25 05:42:27;;;;;;;3.90;1.33;;;20.30;33.20;;;;;;5047452;28;20440;-52
2023/02/25 05:44:53;;;;;;;5.90;1.60;;;20.30;33.20;;;;;;5046791;28;20025;-55
2023/02/25 05:47:20;;;;;;;5.82;1.55;;;20.30;33.20;;;;;;5044393;28;20040;-53
2023/02/25 05:49:46;;;;;;;5.30;1.50;;;20.30;33.20;;;;;;5048998;28;20065;-53
2023/02/25 05:52:15;;;;;;;6.50;1.70;;;20.30;33.10;;;;;;5040825;28;20036;-54
2023/02/25 05:54:40;;;;;;;5.10;1.45;;;20.30;33.10;;;;;;5048053;28;20041;-56
2023/02/25 05:57:06;;;;;;;4.53;1.42;;;20.30;33.10;;;;;;5048863;28;20033;-57
2023/02/25 05:59:32;;;;;;;4.95;1.40;;;20.30;33.10;;;;;;5046525;28;20024;-52
2023/02/25 06:01:58;;;;;;;4.90;1.50;;;20.30;33.10;;;;;;5046656;28;20055;-50
2023/02/25 06:04:24;;;;;;;3.63;1.17;;;20.30;33.10;;;;;;5049023;28;20420;-53
2023/02/25 06:06:50;;;;;;;4.35;1.52;;;20.30;33.10;;;;;;5044908;28;20147;-50
2023/02/25 06:09:18;;;;;;;3.38;1.35;;;20.30;33.10;;;;;;5044214;28;20025;-53
2023/02/25 06:11:45;;;;;;;4.20;1.20;;;20.30;33.10;;;;;;5050200;28;20037;-55
2023/02/25 06:14:11;;;;;;;5.00;1.50;;;20.30;33.10;;;;;;5044312;28;20108;-54
2023/02/25 06:16:39;;;;;;;4.68;1.35;;;20.20;33.00;;;;;;5044528;28;20021;-55
2023/02/25 06:19:07;;;;;;;4.90;1.35;;;20.30;33.00;;;;;;5045030;28;20357;-54
2023/02/25 06:21:34;;;;;;;2.53;0.90;;;20.20;33.00;;;;;;5048316;28;20365;-52
2023/02/25 06:24:01;;;;;;;3.63;1.17;;;20.20;33.00;;;;;;5049730;28;20052;-56
2023/02/25 06:26:28;;;;;;;5.75;1.42;;;20.20;32.90;;;;;;5049737;28;20469;-53
2023/02/25 06:28:54;;;;;;;4.95;1.63;;;20.20;33.10;;;;;;5048484;28;20044;-51
2023/02/25 06:31:22;;;;;;;3.95;1.42;;;20.20;33.20;;;;;;5044103;28;20586;-53
2023/02/25 06:33:49;;;;;;;4.28;1.00;;;20.20;33.10;;;;;;5047643;28;20037;-53
2023/02/25 06:36:16;;;;;;;4.07;1.33;;;20.20;33.10;;;;;;5044684;28;20029;-56
2023/02/25 06:38:44;;;;;;;4.25;1.30;;;20.20;33.10;;;;;;5046109;28;20448;-54
2023/02/25 06:41:16;;;;;;;3.05;1.35;;;20.20;33.00;;;;;;5047352;28;20119;-54
2023/02/25 06:43:43;;;;;;;3.35;1.23;;;20.20;33.00;;;;;;5042542;28;20528;-54
2023/02/25 06:46:11;;;;;;;3.67;0.82;;;20.20;33.00;;;;;;5050268;28;20017;-56
2023/02/25 06:48:37;;;;;;;4.65;1.30;;;20.20;33.00;;;;;;5041518;28;20064;-53
2023/02/25 06:51:07;;;;;;;3.53;1.25;;;20.20;33.00;;;;;;5045108;28;20040;-55
2023/02/25 06:53:38;;;;;;;2.63;1.13;;;20.20;33.00;;;;;;5048379;28;20040;-48
2023/02/25 06:56:05;;;;;;;4.38;1.52;;;20.20;33.00;;;;;;5046463;28;20043;-56
2023/02/25 06:58:31;;;;;;;3.08;1.17;;;20.20;33.00;;;;;;5044193;28;20036;-51
2023/02/25 07:00:58;;;;;;;4.53;1.42;;;20.20;33.10;;;;;;5044216;28;20107;-54
2023/02/25 07:03:24;;;;;;;4.68;1.27;;;20.20;33.10;;;;;;5049866;28;20051;-54
2023/02/25 07:05:50;;;;;;;4.68;1.42;;;20.20;33.10;;;;;;5043630;28;20032;-55
2023/02/25 07:08:16;;;;;;;4.65;1.17;;;20.20;33.10;;;;;;5040313;28;20090;-55
2023/02/25 07:10:42;;;;;;;4.03;1.40;;;20.10;33.10;;;;;;5047374;28;20022;-55
2023/02/25 07:13:09;;;;;;;5.63;1.50;;;20.20;33.20;;;;;;5045067;28;20499;-52
2023/02/25 07:15:36;;;;;;;3.58;1.27;;;20.20;33.20;;;;;;5048297;28;20049;-53
2023/02/25 07:18:03;;;;;;;4.45;1.27;;;20.20;33.80;;;;;;5045718;28;20024;-56
2023/02/25 07:20:29;;;;;;;3.95;1.58;;;20.20;33.20;;;;;;5043425;28;20079;-54
2023/02/25 07:22:55;;;;;;;3.92;1.15;;;20.10;33.20;;;;;;5049937;28;20040;-51
2023/02/25 07:25:21;;;;;;;3.72;1.17;;;20.20;33.30;;;;;;5048299;28;20041;-54
2023/02/25 07:27:47;;;;;;;2.92;1.05;;;20.10;33.20;;;;;;5044065;28;20039;-54
2023/02/25 07:30:13;;;;;;;3.03;1.20;;;20.10;33.30;;;;;;5043227;28;20084;-55
2023/02/25 07:32:41;;;;;;;4.28;1.25;;;20.10;33.30;;;;;;5047562;28;20037;-53
2023/02/25 07:35:07;;;;;;;3.78;1.20;;;20.10;33.30;;;;;;5047742;28;20029;-53
2023/02/25 07:37:33;;;;;;;3.78;1.00;;;20.10;33.30;;;;;;5044610;28;20041;-56
2023/02/25 07:39:59;;;;;;;4.97;1.40;;;20.10;33.30;;;;;;5047056;28;20357;-54
2023/02/25 07:42:28;;;;;;;5.13;1.42;;;20.20;33.40;;;;;;5045523;28;20491;-53
2023/02/25 07:44:57;;;;;;;2.90;1.17;;;20.10;33.40;;;;;;5040260;28;20461;-52
2023/02/25 07:47:23;;;;;;;3.90;1.10;;;20.10;33.40;;;;;;5038443;28;20057;-53
2023/02/25 07:49:49;;;;;;;3.30;1.10;;;20.10;33.40;;;;;;5038027;28;20045;-55
2023/02/25 07:52:15;;;;;;;3.92;1.48;;;20.10;33.40;;;;;;5038231;28;20025;-52
2023/02/25 07:54:41;;;;;;;3.63;1.15;;;20.10;33.50;;;;;;5037475;28;20407;-53
2023/02/25 07:57:07;;;;;;;4.65;1.40;;;20.10;33.50;;;;;;5039512;28;20111;-49
2023/02/25 07:59:33;;;;;;;4.38;1.30;;;20.10;33.50;;;;;;5036949;28;20437;-54
2023/02/25 08:01:59;;;;;;;3.28;1.25;;;20.10;33.50;;;;;;5037309;28;20037;-52
2023/02/25 08:04:26;;;;;;;4.18;1.30;;;20.10;33.50;;;;;;5041438;28;20026;-53
2023/02/25 08:06:52;;;;;;;5.75;1.52;;;20.10;33.50;;;;;;5031008;28;20030;-55
2023/02/25 08:09:18;;;;;;;5.15;1.77;;;20.10;33.60;;;;;;5040724;28;20119;-51
2023/02/25 08:11:45;;;;;;;4.93;1.60;;;20.10;33.60;;;;;;5031437;28;20491;-55
2023/02/25 08:14:11;;;;;;;2.88;1.35;;;20.10;33.70;;;;;;5034290;28;20041;-53
2023/02/25 08:16:37;;;;;;;5.45;2.40;;;20.10;33.70;;;;;;5038240;28;20108;-51
2023/02/25 08:19:05;;;;;;;6.45;3.22;;;20.10;33.70;;;;;;5043308;28;20107;-51
2023/02/25 08:21:35;;;;;;;7.00;3.80;;;20.10;33.90;;;;;;5047705;28;20033;-53
2023/02/25 08:24:01;;;;;;;6.03;3.92;;;20.10;34.10;;;;;;5036144;28;20029;-54
2023/02/25 08:26:27;;;;;;;8.13;4.97;;;20.10;34.30;;;;;;5039931;28;20472;-53
2023/02/25 08:28:55;;;;;;;10.27;5.78;;;20.20;34.50;;;;;;5036710;28;20124;-57
2023/02/25 08:31:21;;;;;;;8.27;5.68;;;20.20;34.60;;;;;;5044659;28;20112;-50
2023/02/25 08:33:51;;;;;;;10.80;6.13;;;20.20;34.70;;;;;;5035308;28;20052;-53
2023/02/25 08:36:28;;;;;;;7.93;4.85;;;20.20;34.70;;;;;;5038188;28;20037;-56
2023/02/25 08:38:56;;;;;;;8.63;5.20;;;20.30;34.70;;;;;;5037601;28;20025;-56
2023/02/25 08:41:22;;;;;;;6.90;4.60;;;20.30;34.60;;;;;;5043355;28;20460;-53
2023/02/25 08:43:53;;;;;;;8.00;5.05;;;20.40;34.60;;;;;;5077378;28;20036;-55
2023/02/25 08:46:19;;;;;;;8.23;4.60;;;20.40;34.50;;;;;;5076813;28;20077;-56
2023/02/25 08:48:48;;;;;;;5.90;3.67;;;20.40;34.40;;;;;;5062524;28;20397;-51
2023/02/25 08:51:15;;;;;;;6.88;3.90;;;20.40;34.30;;;;;;5050352;28;20056;-53
2023/02/25 08:53:40;;;;;;;7.00;4.25;;;20.50;34.30;;;;;;5041442;28;20041;-55
2023/02/25 08:56:08;;;;;;;9.00;5.50;;;20.50;34.30;;;;;;5037703;28;20044;-53
2023/02/25 08:58:35;;;;;;;10.63;6.50;;;20.60;34.50;;;;;;5039704;28;20029;-54
2023/02/25 09:01:12;;;;;;;11.23;6.90;;;20.60;34.60;;;;;;5035245;28;20080;-53
2023/02/25 09:03:39;;;;;;;10.80;7.65;;;20.70;34.80;;;;;;5045757;28;20029;-53
2023/02/25 09:06:06;;;;;;;10.98;7.22;;;20.70;34.80;;;;;;5047098;28;20029;-54
2023/02/25 09:08:31;;;;;;;9.32;6.70;;;20.80;34.70;;;;;;5044945;28;20396;-54
2023/02/25 09:10:57;;;;;;;10.18;6.43;;;20.80;34.60;;;;;;5044849;28;20025;-53
2023/02/25 09:13:23;;;;;;;7.75;5.80;;;20.80;34.50;;;;;;5042188;28;20088;-52
2023/02/25 09:15:56;;;;;;;8.20;5.80;;;20.90;34.30;;;;;;5045942;28;20440;-52
2023/02/25 09:18:22;;;;;;;9.98;5.82;;;20.90;34.20;;;;;;5043422;28;20034;-53
2023/02/25 09:20:51;;;;;;;9.52;5.97;;;20.90;34.10;;;;;;5042004;28;20185;-55
2023/02/25 09:23:18;;;;;;;10.45;5.85;;;21.00;34.10;;;;;;5043258;28;20044;-50
2023/02/25 09:25:44;;;;;;;9.82;6.32;;;21.00;34.10;;;;;;5036596;28;20021;-54
2023/02/25 09:28:11;;;;;;;8.38;6.13;;;21.00;34.10;;;;;;5039182;28;20116;-56
2023/02/25 09:30:37;;;;;;;9.15;6.13;;;21.00;34.00;;;;;;5048848;28;20025;-55
2023/02/25 09:33:03;;;;;;;8.27;5.95;;;21.10;34.00;;;;;;5060786;28;20064;-53
2023/02/25 09:35:29;;;;;;;9.35;6.63;;;21.10;34.00;;;;;;5054954;28;20056;-51
2023/02/25 09:37:55;;;;;;;9.27;6.57;;;21.10;33.90;;;;;;5053894;28;20350;-52
2023/02/25 09:40:24;;;;;;;9.48;6.43;;;21.10;33.90;;;;;;5049959;28;20025;-54
2023/02/25 09:43:02;;;;;;;9.65;6.70;;;21.20;33.80;;;;;;5047632;28;20037;-55
2023/02/25 09:45:32;;;;;;;9.98;7.20;;;21.20;33.80;;;;;;5054068;28;20037;-55
2023/02/25 09:48:36;;;;;;;10.85;7.82;;;21.20;33.80;;;;;;5054669;28;20112;-56
2023/02/25 09:51:30;;;;;;;10.35;7.70;;;21.20;33.80;;;;;;5011047;28;20030;-54
2023/02/25 09:54:15;;;;;;;10.00;8.18;;;21.20;33.80;;;;;;5044434;28;20057;-57
2023/02/25 09:56:47;;;;;;;10.85;8.02;;;21.20;33.90;;;;;;5051770;28;20368;-53
2023/02/25 09:59:20;;;;;;;10.70;9.20;;;21.20;34.00;;;;;;5052030;28;20021;-52
2023/02/25 10:01:59;;;;;;;12.18;8.68;;;21.20;34.10;;;;;;5051735;28;20086;-56
2023/02/25 10:04:38;;;;;;;12.18;9.55;;;21.20;34.20;;;;;;5052532;28;20044;-56
2023/02/25 10:07:19;;;;;;;13.27;9.68;;;21.30;34.20;;;;;;5052793;28;20025;-57
2023/02/25 10:09:54;;;;;;;14.05;9.63;;;21.30;34.10;;;;;;5053501;28;20448;-55
2023/02/25 10:12:53;;;;;;;12.38;8.88;;;21.30;33.90;;;;;;5052549;28;20371;-55
2023/02/25 10:15:32;;;;;;;11.00;8.25;;;21.30;33.80;;;;;;5052858;28;20044;-57
2023/02/25 10:18:01;;;;;;;11.85;8.10;;;21.30;33.60;;;;;;5049591;28;20111;-53
2023/02/25 10:20:52;;;;;;;10.00;7.78;;;21.30;33.50;;;;;;5053900;28;20367;-55
2023/02/25 10:23:26;;;;;;;9.90;6.90;;;21.30;33.50;;;;;;5053594;28;20017;-53
2023/02/25 10:26:06;;;;;;;10.48;7.30;;;21.30;33.30;;;;;;5053443;28;20118;-54
2023/02/25 10:28:35;;;;;;;9.45;7.00;;;21.30;33.20;;;;;;5050623;28;20043;-57
2023/02/25 10:31:13;;;;;;;8.73;6.43;;;21.30;33.20;;;;;;5052469;28;20029;-55
2023/02/25 10:33:42;;;;;;;9.43;5.93;;;21.30;33.10;;;;;;5053752;28;20045;-58
2023/02/25 10:36:29;;;;;;;8.38;5.55;;;21.40;33.10;;;;;;5051831;28;20407;-55
2023/02/25 10:38:55;;;;;;;8.40;5.75;;;21.40;32.90;;;;;;5051444;28;20033;-57
2023/02/25 10:41:23;;;;;;;9.35;5.40;;;21.40;32.80;;;;;;5053622;28;20029;-55
2023/02/25 10:43:50;;;;;;;7.40;5.43;;;21.40;32.70;;;;;;5053556;28;20029;-56
2023/02/25 10:46:24;;;;;;;7.70;4.65;;;21.40;33.20;;;;;;5053089;28;20094;-53
2023/02/25 10:48:56;;;;;;;7.15;5.00;;;21.40;32.40;;;;;;5053182;28;20037;-57
2023/02/25 10:51:22;;;;;;;6.88;4.85;;;21.40;32.40;;;;;;5052115;28;20167;-56
2023/02/25 10:53:57;;;;;;;6.07;4.50;;;21.40;31.80;;;;;;5053342;28;20116;-53
2023/02/25 10:56:43;;;;;;;8.07;5.20;;;21.40;32.20;;;;;;5051309;28;20037;-54
2023/02/25 10:59:33;;;;;;;6.22;4.13;;;21.40;32.10;;;;;;5052093;28;20029;-55
2023/02/25 11:02:00;;;;;;;6.07;3.83;;;21.40;31.90;;;;;;5051684;28;20021;-54
2023/02/25 11:04:35;;;;;;;6.13;4.38;;;21.40;31.80;;;;;;5049820;28;20029;-57
2023/02/25 11:07:02;;;;;;;5.55;4.03;;;21.40;31.70;;;;;;5052688;28;20052;-52
2023/02/25 11:09:34;;;;;;;7.13;4.20;;;21.40;31.60;;;;;;5051304;28;20033;-51
2023/02/25 11:12:19;;;;;;;5.47;3.70;;;21.40;31.40;;;;;;5051966;28;20361;-54
2023/02/25 11:14:45;;;;;;;6.15;3.88;;;21.40;31.30;;;;;;5050205;28;20048;-54
2023/02/25 11:17:19;;;;;;;6.25;4.07;;;21.40;31.20;;;;;;5050504;28;20510;-54
2023/02/25 11:20:01;;;;;;;5.93;3.83;;;21.40;31.10;;;;;;5054037;28;20043;-55
2023/02/25 11:22:42;;;;;;;6.38;4.15;;;21.40;31.00;;;;;;5051974;28;20033;-54
2023/02/25 11:25:19;;;;;;;5.75;3.78;;;21.40;30.90;;;;;;5051962;28;20075;-56
2023/02/25 11:27:57;;;;;;;4.35;3.40;;;21.40;30.90;;;;;;5051966;28;20025;-56
2023/02/25 11:30:36;;;;;;;5.97;3.50;;;21.30;30.80;;;;;;5050777;28;20049;-54
2023/02/25 11:33:07;;;;;;;6.07;4.00;;;21.40;30.80;;;;;;5052718;28;20102;-57
2023/02/25 11:35:36;;;;;;;5.93;3.70;;;21.40;30.70;;;;;;5051165;28;20036;-56
2023/02/25 11:38:27;;;;;;;6.78;3.90;;;21.30;30.60;;;;;;5049758;28;20445;-57
2023/02/25 11:40:54;;;;;;;5.85;3.83;;;21.30;30.60;;;;;;5051585;28;20044;-53
2023/02/25 11:43:24;;;;;;;6.20;3.65;;;21.30;30.50;;;;;;5053247;28;20025;-56
2023/02/25 11:46:03;;;;;;;4.75;3.17;;;21.40;30.60;;;;;;5051034;28;20075;-58
2023/02/25 11:48:39;;;;;;;4.68;3.35;;;21.40;30.50;;;;;;5053555;28;20025;-55
2023/02/25 11:51:39;;;;;;;7.15;4.45;;;21.40;30.40;;;;;;5056530;28;20020;-52
2023/02/25 11:54:24;;;;;;;15.68;10.60;;;21.40;30.70;;;;;;5055414;28;20082;-56
2023/02/25 11:57:00;;;;;;;26.83;18.88;;;21.40;31.40;;;;;;5055588;28;20060;-57
2023/02/25 11:59:38;;;;;;;29.63;22.63;;;21.40;31.80;;;;;;5053395;28;20475;-52
2023/02/25 12:02:33;;;;;;;28.83;23.50;;;21.40;32.40;;;;;;5060169;28;20475;-55
2023/02/25 12:05:08;;;;;;;34.17;26.08;;;21.50;32.70;;;;;;5053678;28;20118;-56
2023/02/25 12:07:49;;;;;;;36.92;27.73;;;21.50;32.90;;;;;;5054674;28;20025;-56
2023/02/25 12:10:23;;;;;;;33.03;25.45;;;21.50;32.90;;;;;;5057741;28;20419;-55
2023/02/25 12:13:05;;;;;;;35.00;26.70;;;21.50;33.60;;;;;;5056107;28;20083;-57
2023/02/25 12:15:56;;;;;;;29.88;25.02;;;21.50;32.90;;;;;;5055453;28;20029;-56
2023/02/25 12:18:50;;;;;;;32.55;26.30;;;21.50;32.90;;;;;;5053340;28;20061;-56
2023/02/25 12:21:55;;;;;;;35.50;27.92;;;21.50;32.90;;;;;;5055835;28;20032;-56
2023/02/25 12:24:47;;;;;;;32.90;26.83;;;21.50;33.10;;;;;;5033807;28;20041;-56
2023/02/25 12:27:51;;;;;;;36.53;28.92;;;21.50;33.30;;;;;;5047503;28;20060;-53
2023/02/25 12:30:38;;;;;;;37.20;28.58;;;21.50;33.50;;;;;;5047928;28;20337;-52
2023/02/25 12:33:23;;;;;;;36.80;29.20;;;21.50;33.50;;;;;;5050394;28;20041;-53
2023/02/25 12:36:03;;;;;;;34.88;27.83;;;21.50;33.40;;;;;;5045385;28;20017;-56
2023/02/25 12:38:29;;;;;;;39.90;27.80;;;21.50;33.40;;;;;;5043199;28;20029;-57
2023/02/25 12:41:22;;;;;;;35.25;27.73;;;21.50;33.30;;;;;;5048627;28;20083;-52
2023/02/25 12:43:58;;;;;;;34.90;28.13;;;21.50;33.10;;;;;;5043468;28;20036;-54
2023/02/25 12:46:50;;;;;;;34.00;28.05;;;21.50;33.00;;;;;;5049345;28;20456;-55
2023/02/25 12:49:34;;;;;;;33.97;27.50;;;21.50;33.00;;;;;;5052867;28;20060;-56
2023/02/25 12:52:19;;;;;;;35.13;28.52;;;21.50;33.10;;;;;;5049459;28;20056;-55
2023/02/25 12:55:28;;;;;;;35.45;27.58;;;21.50;33.20;;;;;;5048631;28;20044;-58
2023/02/25 12:58:15;;;;;;;35.28;27.10;;;21.60;33.40;;;;;;5048019;28;20029;-59
2023/02/25 13:01:15;;;;;;;32.60;25.98;;;21.60;33.40;;;;;;5050410;28;20111;-56
2023/02/25 13:03:47;;;;;;;32.97;25.27;;;21.60;33.20;;;;;;5045725;28;20053;-54
2023/02/25 13:06:31;;;;;;;33.05;25.75;;;21.50;33.00;;;;;;5043244;28;20033;-52
2023/02/25 13:09:20;;;;;;;29.10;23.55;;;21.60;32.90;;;;;;5046099;28;21047;-54